createdAt,value
2017-08-26T04:09:21.950Z,37.77
2017-08-26T04:11:49.488Z,37.68
2017-08-26T04:14:16.999Z,37.66
2017-08-26T04:16:44.544Z,37.58
2017-08-26T04:19:12.071Z,37.47
2017-08-26T04:21:39.618Z,37.38
2017-08-26T04:24:07.161Z,37.25
2017-08-26T04:26:34.735Z,37.22
2017-08-26T04:29:02.291Z,37.06
2017-08-26T04:31:29.864Z,36.97
2017-08-26T04:33:57.430Z,36.86
2017-08-26T04:36:24.983Z,36.75
2017-08-26T04:38:52.509Z,36.68
2017-08-26T04:41:20.094Z,36.44
2017-08-26T15:29:02.024Z,27.05
2017-08-26T15:31:29.573Z,27.93
2017-08-26T15:33:57.083Z,29.40
2017-08-26T15:36:24.675Z,28.27
2017-08-26T15:38:52.188Z,28.47
2017-08-26T15:41:19.741Z,27.40
2017-08-26T15:43:47.288Z,27.21
2017-08-26T15:46:14.831Z,27.20
2017-08-26T15:48:42.353Z,28.90
2017-08-26T15:51:10.482Z,28.64
2017-08-26T15:53:37.975Z,28.09
2017-08-26T15:56:05.454Z,27.75
2017-08-26T15:58:33.006Z,28.67
2017-08-26T16:01:00.501Z,27.52
2017-08-26T16:03:28.024Z,27.24
2017-08-26T16:05:55.598Z,27.97
2017-08-26T16:08:23.113Z,27.21
2017-08-26T16:10:50.649Z,27.60
2017-08-26T16:13:18.302Z,27.60
2017-08-26T16:15:45.834Z,26.98
2017-08-26T16:18:13.415Z,27.29
2017-08-26T16:20:40.952Z,27.01
2017-08-26T16:23:08.485Z,26.93
2017-08-26T16:25:36.026Z,27.30
2017-08-26T16:28:03.585Z,27.63
2017-08-26T16:30:31.144Z,27.45
2017-08-26T16:32:58.626Z,27.55
2017-08-26T16:35:26.185Z,27.45
2017-08-26T16:37:53.678Z,27.64
2017-08-26T16:40:21.213Z,27.75
2017-08-26T16:45:08.909Z,27.81
2017-08-26T16:47:36.391Z,28.01
2017-08-26T16:50:03.921Z,28.23
2017-08-26T16:52:31.509Z,28.14
2017-08-26T16:54:59.041Z,28.09
2017-08-26T16:57:26.563Z,28.08
2017-08-26T16:59:54.139Z,28.27
2017-08-26T17:02:21.651Z,28.33
2017-08-26T17:04:49.136Z,28.36
2017-08-26T17:07:16.650Z,28.48
2017-08-26T17:09:44.198Z,28.61
2017-08-26T17:12:11.729Z,28.92
2017-08-26T17:14:39.898Z,29.32
2017-08-26T17:17:07.468Z,29.60
2017-08-26T17:19:35.025Z,29.72
2017-08-26T17:22:02.542Z,30.03
2017-08-26T17:24:30.081Z,30.12
2017-08-26T17:26:57.631Z,30.09
2017-08-26T17:29:25.164Z,30.17
2017-08-26T17:31:52.655Z,30.22
2017-08-26T17:34:20.200Z,30.46
2017-08-26T17:36:47.787Z,30.44
2017-08-26T17:39:16.301Z,30.61
2017-08-26T17:41:43.778Z,30.57
2017-08-26T17:44:11.374Z,30.65
2017-08-26T17:46:38.915Z,30.81
2017-08-26T17:49:06.437Z,30.95
2017-08-26T17:51:34.037Z,30.97
2017-08-26T17:54:01.533Z,31.06
2017-08-26T17:56:29.069Z,31.46
2017-08-26T17:58:56.656Z,31.50
2017-08-26T18:01:24.184Z,31.41
2017-08-26T18:03:51.735Z,31.55
2017-08-26T18:06:19.263Z,31.60
2017-08-26T18:08:46.798Z,31.80
2017-08-26T18:11:14.294Z,31.66
2017-08-26T18:13:41.875Z,32.33
2017-08-26T18:16:09.478Z,32.24
2017-08-26T18:18:37.081Z,32.42
2017-08-26T18:21:04.638Z,32.71
2017-08-26T18:23:32.168Z,32.56
2017-08-26T18:25:59.647Z,32.83
2017-08-26T18:28:27.182Z,32.80
2017-08-26T18:30:54.706Z,32.78
2017-08-26T18:33:22.240Z,32.78
2017-08-26T18:35:49.762Z,33.05
2017-08-26T18:38:17.307Z,33.29
2017-08-26T18:40:44.836Z,33.58
2017-08-26T18:43:12.433Z,33.61
2017-08-26T18:45:39.962Z,33.42
2017-08-26T18:48:07.531Z,33.67
2017-08-26T18:50:35.056Z,33.75
2017-08-26T18:53:02.613Z,33.88
2017-08-26T18:55:30.144Z,34.04
2017-08-26T18:57:57.714Z,34.18
